Cedar Grove, New Jersey
Current Conditions -  °F | °C
As of 11:53 AM on Saturday 20 Dec 2014 (Local Time) from KCDW Reporting Station
Overcast Overcast  
Wind Chill: 30°   Ceiling: 2500
Heat Index: 30°   Visibility: 10mi
Dew Point: 20°   Wind: 3mph
Humidity: 66%   Direction: NA
Pressure: 30.29"   Gusts: NA
Location:  40.85°N, 74.23°W
Report Text: KCDW 201653Z AUTO VRB03KT 10SM OVC025 M01/M07 A3029 RMK AO2 SLP264 T10111067 TSNO
Loading
Personal Weather Stations






























Interactive Weather Map New forecast layout! Learn more

10-Day Weather Forecast

Advertisements
Track Severe Weather on mobile